createdAt,value
2023-06-10T00:03:48.530Z,3.20
2023-06-10T00:08:52.428Z,3.10
2023-06-10T00:13:55.376Z,3.60
2023-06-10T00:19:02.311Z,3.10
2023-06-10T00:24:07.601Z,3.10
2023-06-10T00:29:10.593Z,2.50
2023-06-10T00:34:13.649Z,3.00
2023-06-10T00:39:17.780Z,3.00
2023-06-10T00:44:20.961Z,2.80
2023-06-10T00:49:25.087Z,3.00
2023-06-10T00:54:28.442Z,3.10
2023-06-10T00:59:32.326Z,2.90
2023-06-10T01:04:38.722Z,2.70
2023-06-10T01:10:08.358Z,2.30
2023-06-10T01:15:27.499Z,2.60
2023-06-10T01:20:33.480Z,2.70
2023-06-10T01:25:59.253Z,2.50
2023-06-10T01:31:35.213Z,2.70
2023-06-10T01:36:43.692Z,2.50
2023-06-10T01:41:48.901Z,2.50
2023-06-10T01:46:53.863Z,2.60
2023-06-10T01:51:56.724Z,2.50
2023-06-10T01:56:59.476Z,2.30
2023-06-10T02:02:03.458Z,2.40
2023-06-10T02:07:09.642Z,2.50
2023-06-10T02:12:12.790Z,2.00
2023-06-10T02:17:15.826Z,2.70
2023-06-10T02:22:20.508Z,2.40
2023-06-10T02:27:25.739Z,2.50
2023-06-10T02:32:29.413Z,2.40
2023-06-10T02:37:32.290Z,2.30
2023-06-10T02:42:36.264Z,2.50
2023-06-10T02:47:44.093Z,2.50
2023-06-10T02:52:49.022Z,2.30
2023-06-10T02:57:52.101Z,2.70
2023-06-10T03:02:58.707Z,2.70
2023-06-10T03:08:01.823Z,2.70
2023-06-10T03:13:06.964Z,2.30
2023-06-10T03:18:09.673Z,2.60
2023-06-10T03:23:12.732Z,2.60
2023-06-10T03:28:15.915Z,2.50
2023-06-10T03:33:23.239Z,2.40
2023-06-10T03:38:25.989Z,2.50
2023-06-10T03:43:28.825Z,2.40
2023-06-10T03:48:32.182Z,2.40
2023-06-10T03:53:38.160Z,2.60
2023-06-10T03:58:45.930Z,2.20
2023-06-10T04:03:52.285Z,2.40
2023-06-10T04:08:55.246Z,2.70
2023-06-10T04:13:57.975Z,2.40
2023-06-10T04:19:01.859Z,2.70
2023-06-10T04:24:05.418Z,2.90
2023-06-10T04:29:18.085Z,2.90
2023-06-10T04:34:20.753Z,2.40
2023-06-10T04:39:23.698Z,2.70
2023-06-10T04:44:26.435Z,2.70
2023-06-10T04:49:31.126Z,2.50
2023-06-10T04:54:33.906Z,2.20
2023-06-10T04:59:38.665Z,2.40
2023-06-10T05:04:44.050Z,2.60
2023-06-10T05:09:50.717Z,3.10
2023-06-10T05:14:53.479Z,2.60
2023-06-10T05:19:57.237Z,2.50
2023-06-10T05:24:59.806Z,2.60
2023-06-10T05:30:05.679Z,2.70
2023-06-10T05:35:08.685Z,2.40
2023-06-10T05:40:12.705Z,2.30
2023-06-10T05:45:15.600Z,2.20
2023-06-10T05:50:18.569Z,3.00
2023-06-10T05:55:22.575Z,2.60
2023-06-10T06:00:25.379Z,2.50
2023-06-10T06:05:36.007Z,2.30
2023-06-10T06:10:39.129Z,3.10
2023-06-10T06:15:41.819Z,2.70
2023-06-10T06:20:44.719Z,2.70
2023-06-10T06:25:47.404Z,3.00
2023-06-10T06:30:50.087Z,2.80
2023-06-10T06:35:54.886Z,2.70
2023-06-10T06:40:57.892Z,2.80
2023-06-10T06:46:03.445Z,2.90
2023-06-10T06:51:06.369Z,2.60
2023-06-10T06:56:09.177Z,2.50
2023-06-10T07:01:11.938Z,2.80
2023-06-10T07:06:15.964Z,2.90
2023-06-10T07:11:21.254Z,2.80
2023-06-10T07:16:29.128Z,2.90
2023-06-10T07:21:33.290Z,2.80
2023-06-10T07:26:37.214Z,2.80
2023-06-10T07:31:41.686Z,3.00
2023-06-10T07:36:44.415Z,2.80
2023-06-10T07:41:47.105Z,2.90
2023-06-10T07:46:50.469Z,2.80
2023-06-10T07:51:56.127Z,2.80
2023-06-10T07:56:58.780Z,2.60
2023-06-10T08:02:01.527Z,3.00
2023-06-10T08:07:04.757Z,2.60
2023-06-10T08:12:08.808Z,2.70
2023-06-10T08:17:11.969Z,3.00
2023-06-10T08:22:15.924Z,2.60
2023-06-10T08:27:19.159Z,2.80
2023-06-10T08:32:21.930Z,2.70
2023-06-10T08:37:25.685Z,2.80
2023-06-10T08:42:46.809Z,3.30
2023-06-10T08:47:54.480Z,2.60
2023-06-10T08:53:00.166Z,3.80
2023-06-10T08:58:04.982Z,2.90
2023-06-10T09:03:10.318Z,2.70
2023-06-10T09:08:16.421Z,2.50
2023-06-10T09:13:20.104Z,2.60
2023-06-10T09:18:24.144Z,2.90
2023-06-10T09:23:27.353Z,3.00
2023-06-10T09:28:30.518Z,2.60
2023-06-10T09:33:35.574Z,2.70
2023-06-10T09:38:39.082Z,2.70
2023-06-10T09:43:47.540Z,2.50
2023-06-10T09:48:53.397Z,2.90
2023-06-10T09:54:02.169Z,2.60
2023-06-10T09:59:07.358Z,2.20
2023-06-10T10:04:09.986Z,2.80
2023-06-10T10:09:18.952Z,2.70
2023-06-10T10:14:23.712Z,2.60
2023-06-10T10:19:48.327Z,2.60
2023-06-10T10:24:56.489Z,2.20
2023-06-10T10:30:13.714Z,2.30
2023-06-10T10:35:24.719Z,2.40
2023-06-10T10:40:32.888Z,2.50
2023-06-10T10:45:37.407Z,2.20
2023-06-10T10:50:41.791Z,2.50
2023-06-10T10:56:08.043Z,2.20
2023-06-10T11:01:18.405Z,2.40
2023-06-10T11:06:23.183Z,2.30
2023-06-10T11:11:29.205Z,1.90
2023-06-10T11:16:44.339Z,2.00
2023-06-10T11:22:18.903Z,2.10
2023-06-10T11:27:28.491Z,1.80
2023-06-10T11:32:36.432Z,2.20
2023-06-10T11:37:43.386Z,2.30
2023-06-10T11:42:46.982Z,1.40
2023-06-10T11:48:00.727Z,2.30
2023-06-10T11:53:12.362Z,2.20
2023-06-10T11:58:26.266Z,1.80
2023-06-10T12:03:40.952Z,1.80
2023-06-10T12:08:45.162Z,2.50
2023-06-10T12:13:51.686Z,2.00
2023-06-10T12:19:04.238Z,2.20
2023-06-10T12:24:12.649Z,2.30
2023-06-10T12:29:26.050Z,2.20
2023-06-10T12:34:31.474Z,2.00
2023-06-10T12:39:35.406Z,2.10
2023-06-10T12:44:42.447Z,2.10
2023-06-10T12:49:48.388Z,2.30
2023-06-10T12:54:51.222Z,2.10
2023-06-10T12:59:55.714Z,2.20
2023-06-10T13:04:58.507Z,2.10
2023-06-10T13:10:04.050Z,2.10
2023-06-10T13:15:11.169Z,2.30
2023-06-10T13:20:14.207Z,2.10
2023-06-10T13:25:18.726Z,1.70
2023-06-10T13:30:21.774Z,1.70
2023-06-10T13:35:24.516Z,2.40
2023-06-10T13:40:28.136Z,1.90
2023-06-10T13:45:31.470Z,2.10
2023-06-10T13:50:34.301Z,2.50
2023-06-10T13:55:39.161Z,2.20
2023-06-10T14:00:42.181Z,1.70
2023-06-10T14:05:44.883Z,2.20
2023-06-10T14:10:52.451Z,1.90
2023-06-10T14:15:55.631Z,1.60
2023-06-10T14:21:00.577Z,2.30
2023-06-10T14:26:09.431Z,2.10
2023-06-10T14:31:12.127Z,2.20
2023-06-10T14:36:17.347Z,1.90
2023-06-10T14:41:20.021Z,1.90
2023-06-10T14:46:22.992Z,1.70
2023-06-10T14:51:27.805Z,2.00
2023-06-10T14:56:35.083Z,2.30
2023-06-10T15:01:40.297Z,2.30
2023-06-10T15:06:44.497Z,1.80
2023-06-10T15:11:48.648Z,2.00
2023-06-10T15:16:51.809Z,2.00
2023-06-10T15:21:55.050Z,1.80
2023-06-10T15:26:59.107Z,1.60
2023-06-10T15:32:02.072Z,2.00
2023-06-10T15:37:05.366Z,2.00
2023-06-10T15:42:08.279Z,2.00
2023-06-10T15:47:12.161Z,2.20
2023-06-10T15:52:15.857Z,2.10
2023-06-10T15:57:18.703Z,2.00
2023-06-10T16:02:21.677Z,1.90
2023-06-10T16:07:27.229Z,1.90
2023-06-10T16:12:29.976Z,2.40
2023-06-10T16:17:33.482Z,1.80
2023-06-10T16:22:36.752Z,2.00
2023-06-10T16:27:39.370Z,2.00
2023-06-10T16:32:44.269Z,1.80
2023-06-10T16:37:47.170Z,1.90
2023-06-10T16:42:50.968Z,2.10
2023-06-10T16:47:55.187Z,1.70
2023-06-10T16:53:02.927Z,1.80
2023-06-10T16:58:08.591Z,1.90
2023-06-10T17:03:15.104Z,1.80
2023-06-10T17:08:18.035Z,1.90
2023-06-10T17:13:21.268Z,2.00
2023-06-10T17:18:24.213Z,1.50
2023-06-10T17:23:30.168Z,1.70
2023-06-10T17:28:35.042Z,2.00
2023-06-10T17:33:38.239Z,1.60
2023-06-10T17:38:43.252Z,1.60
2023-06-10T17:43:46.077Z,1.70
2023-06-10T17:48:51.819Z,1.70
2023-06-10T17:53:54.516Z,2.00
2023-06-10T17:58:57.346Z,1.30
2023-06-10T18:04:07.953Z,1.60
2023-06-10T18:09:15.210Z,1.60
2023-06-10T18:14:17.972Z,1.70
2023-06-10T18:19:22.961Z,1.60
2023-06-10T18:24:25.944Z,1.70
2023-06-10T18:29:28.779Z,1.60
2023-06-10T18:34:31.841Z,1.70
2023-06-10T18:39:36.161Z,1.80
2023-06-10T18:44:38.939Z,1.60
2023-06-10T18:49:48.710Z,1.60
2023-06-10T18:54:55.179Z,1.80
2023-06-10T18:59:58.334Z,1.60
2023-06-10T19:05:02.667Z,1.60
2023-06-10T19:10:08.380Z,2.00
2023-06-10T19:15:12.127Z,1.70
2023-06-10T19:20:16.367Z,1.70
2023-06-10T19:25:23.312Z,1.40
2023-06-10T19:30:26.029Z,1.80
2023-06-10T19:35:29.153Z,1.50
2023-06-10T19:40:35.209Z,2.00
2023-06-10T19:45:38.135Z,1.80
2023-06-10T19:50:41.205Z,1.80
2023-06-10T19:55:44.390Z,2.00
2023-06-10T20:00:48.838Z,2.00
2023-06-10T20:05:51.935Z,1.90
2023-06-10T20:10:56.391Z,1.80
2023-06-10T20:16:02.935Z,1.40
2023-06-10T20:21:07.139Z,1.80
2023-06-10T20:26:10.029Z,1.70
2023-06-10T20:31:22.945Z,1.60
2023-06-10T20:36:29.618Z,1.60
2023-06-10T20:41:35.499Z,1.80
2023-06-10T20:46:38.635Z,1.60
2023-06-10T20:51:43.641Z,1.40
2023-06-10T20:56:49.425Z,1.50
2023-06-10T21:01:52.525Z,1.70
2023-06-10T21:06:57.965Z,1.60
2023-06-10T21:12:02.065Z,1.70
2023-06-10T21:17:05.182Z,1.60
2023-06-10T21:22:08.659Z,1.20
2023-06-10T21:27:12.205Z,1.60
2023-06-10T21:32:15.540Z,2.50
2023-06-10T21:37:18.324Z,1.50
2023-06-10T21:42:22.585Z,1.80
2023-06-10T21:47:25.455Z,1.20
2023-06-10T21:52:28.384Z,1.50
2023-06-10T21:57:31.251Z,1.30
2023-06-10T22:02:33.984Z,1.60
2023-06-10T22:07:42.216Z,1.50
2023-06-10T22:12:44.994Z,1.60
2023-06-10T22:17:47.803Z,1.60
2023-06-10T22:22:50.696Z,1.50
2023-06-10T22:27:53.526Z,1.70
2023-06-10T22:32:56.411Z,1.50
2023-06-10T22:37:59.369Z,1.40
2023-06-10T22:43:02.242Z,1.30
2023-06-10T22:48:05.573Z,1.30
2023-06-10T22:53:08.531Z,1.80
2023-06-10T22:58:11.551Z,1.40
2023-06-10T23:03:14.395Z,1.70
2023-06-10T23:08:19.720Z,1.50
2023-06-10T23:13:22.615Z,1.70
2023-06-10T23:18:25.332Z,1.40
2023-06-10T23:23:39.299Z,1.70
2023-06-10T23:28:43.153Z,1.50
2023-06-10T23:33:47.022Z,1.60
2023-06-10T23:38:49.945Z,1.50
2023-06-10T23:43:54.083Z,1.40
2023-06-10T23:48:56.718Z,1.50
2023-06-10T23:54:02.409Z,1.50
2023-06-10T23:59:05.114Z,1.60
